sensor_id;sensor_type;location;lat;lon;timestamp;P1;durP1;ratioP1;P2;durP2;ratioP2
14530;SDS011;7352;50.866;4.366;2022-12-18T00:00:44;0.40;;;0.40;;
14530;SDS011;7352;50.866;4.366;2022-12-18T00:03:12;0.40;;;0.40;;
14530;SDS011;7352;50.866;4.366;2022-12-18T00:05:45;0.30;;;0.30;;
14530;SDS011;7352;50.866;4.366;2022-12-18T00:08:12;0.40;;;0.40;;
14530;SDS011;7352;50.866;4.366;2022-12-18T00:10:39;0.40;;;0.40;;
14530;SDS011;7352;50.866;4.366;2022-12-18T00:13:06;0.30;;;0.30;;
14530;SDS011;7352;50.866;4.366;2022-12-18T00:15:36;0.40;;;0.40;;
14530;SDS011;7352;50.866;4.366;2022-12-18T00:18:03;0.40;;;0.40;;
14530;SDS011;7352;50.866;4.366;2022-12-18T00:23:01;0.40;;;0.40;;
14530;SDS011;7352;50.866;4.366;2022-12-18T00:25:28;0.40;;;0.40;;
14530;SDS011;7352;50.866;4.366;2022-12-18T00:27:55;0.40;;;0.40;;
14530;SDS011;7352;50.866;4.366;2022-12-18T00:30:22;0.33;;;0.33;;
14530;SDS011;7352;50.866;4.366;2022-12-18T00:32:50;0.40;;;0.40;;
14530;SDS011;7352;50.866;4.366;2022-12-18T00:35:17;0.40;;;0.40;;
14530;SDS011;7352;50.866;4.366;2022-12-18T00:37:44;0.50;;;0.50;;
14530;SDS011;7352;50.866;4.366;2022-12-18T00:40:11;0.40;;;0.40;;
14530;SDS011;7352;50.866;4.366;2022-12-18T00:42:38;0.40;;;0.40;;
14530;SDS011;7352;50.866;4.366;2022-12-18T00:45:22;0.30;;;0.30;;
14530;SDS011;7352;50.866;4.366;2022-12-18T00:47:51;0.40;;;0.40;;
14530;SDS011;7352;50.866;4.366;2022-12-18T00:50:18;0.40;;;0.40;;
14530;SDS011;7352;50.866;4.366;2022-12-18T00:52:45;0.40;;;0.40;;
14530;SDS011;7352;50.866;4.366;2022-12-18T00:55:12;0.40;;;0.40;;
14530;SDS011;7352;50.866;4.366;2022-12-18T00:57:40;0.40;;;0.40;;
14530;SDS011;7352;50.866;4.366;2022-12-18T01:00:08;0.40;;;0.40;;
14530;SDS011;7352;50.866;4.366;2022-12-18T01:02:36;0.40;;;0.40;;
14530;SDS011;7352;50.866;4.366;2022-12-18T01:05:05;0.40;;;0.40;;
14530;SDS011;7352;50.866;4.366;2022-12-18T01:07:33;0.40;;;0.40;;
14530;SDS011;7352;50.866;4.366;2022-12-18T01:10:01;0.40;;;0.40;;
14530;SDS011;7352;50.866;4.366;2022-12-18T01:12:28;0.40;;;0.40;;
14530;SDS011;7352;50.866;4.366;2022-12-18T01:14:55;0.40;;;0.40;;
14530;SDS011;7352;50.866;4.366;2022-12-18T01:17:22;0.40;;;0.40;;
14530;SDS011;7352;50.866;4.366;2022-12-18T01:19:49;0.40;;;0.40;;
14530;SDS011;7352;50.866;4.366;2022-12-18T01:22:18;0.40;;;0.40;;
14530;SDS011;7352;50.866;4.366;2022-12-18T01:24:48;0.40;;;0.40;;
14530;SDS011;7352;50.866;4.366;2022-12-18T01:27:15;0.40;;;0.40;;
14530;SDS011;7352;50.866;4.366;2022-12-18T01:29:43;0.40;;;0.40;;
14530;SDS011;7352;50.866;4.366;2022-12-18T01:32:10;0.40;;;0.40;;
14530;SDS011;7352;50.866;4.366;2022-12-18T01:34:43;0.40;;;0.40;;
14530;SDS011;7352;50.866;4.366;2022-12-18T01:37:11;0.40;;;0.40;;
14530;SDS011;7352;50.866;4.366;2022-12-18T01:39:40;0.40;;;0.40;;
14530;SDS011;7352;50.866;4.366;2022-12-18T01:42:09;0.40;;;0.40;;
14530;SDS011;7352;50.866;4.366;2022-12-18T01:44:54;0.30;;;0.30;;
14530;SDS011;7352;50.866;4.366;2022-12-18T01:47:34;0.40;;;0.40;;
14530;SDS011;7352;50.866;4.366;2022-12-18T01:50:05;0.40;;;0.40;;
14530;SDS011;7352;50.866;4.366;2022-12-18T01:52:35;0.40;;;0.40;;
14530;SDS011;7352;50.866;4.366;2022-12-18T01:55:06;0.40;;;0.40;;
14530;SDS011;7352;50.866;4.366;2022-12-18T01:57:35;0.40;;;0.40;;
14530;SDS011;7352;50.866;4.366;2022-12-18T02:00:04;0.40;;;0.40;;
14530;SDS011;7352;50.866;4.366;2022-12-18T02:02:34;0.40;;;0.40;;
14530;SDS011;7352;50.866;4.366;2022-12-18T02:05:02;0.40;;;0.40;;
14530;SDS011;7352;50.866;4.366;2022-12-18T02:07:32;0.40;;;0.40;;
14530;SDS011;7352;50.866;4.366;2022-12-18T02:10:06;0.40;;;0.40;;
14530;SDS011;7352;50.866;4.366;2022-12-18T02:12:42;0.40;;;0.40;;
14530;SDS011;7352;50.866;4.366;2022-12-18T02:15:15;0.40;;;0.40;;
14530;SDS011;7352;50.866;4.366;2022-12-18T02:17:47;0.40;;;0.40;;
14530;SDS011;7352;50.866;4.366;2022-12-18T02:20:19;0.40;;;0.40;;
14530;SDS011;7352;50.866;4.366;2022-12-18T02:23:00;0.40;;;0.40;;
14530;SDS011;7352;50.866;4.366;2022-12-18T02:28:34;0.40;;;0.40;;
14530;SDS011;7352;50.866;4.366;2022-12-18T02:31:04;0.40;;;0.40;;
14530;SDS011;7352;50.866;4.366;2022-12-18T02:33:39;0.40;;;0.40;;
14530;SDS011;7352;50.866;4.366;2022-12-18T02:36:08;0.40;;;0.40;;
14530;SDS011;7352;50.866;4.366;2022-12-18T02:38:37;0.50;;;0.50;;
14530;SDS011;7352;50.866;4.366;2022-12-18T02:41:07;0.40;;;0.40;;
14530;SDS011;7352;50.866;4.366;2022-12-18T02:43:34;0.40;;;0.40;;
14530;SDS011;7352;50.866;4.366;2022-12-18T02:48:52;0.40;;;0.40;;
14530;SDS011;7352;50.866;4.366;2022-12-18T02:51:29;0.40;;;0.40;;
14530;SDS011;7352;50.866;4.366;2022-12-18T02:54:01;0.50;;;0.50;;
14530;SDS011;7352;50.866;4.366;2022-12-18T02:56:38;0.40;;;0.40;;
14530;SDS011;7352;50.866;4.366;2022-12-18T02:59:13;0.40;;;0.40;;
14530;SDS011;7352;50.866;4.366;2022-12-18T03:01:46;0.50;;;0.50;;
14530;SDS011;7352;50.866;4.366;2022-12-18T03:04:23;0.50;;;0.50;;
14530;SDS011;7352;50.866;4.366;2022-12-18T03:06:53;0.40;;;0.40;;
14530;SDS011;7352;50.866;4.366;2022-12-18T03:09:24;0.40;;;0.40;;
14530;SDS011;7352;50.866;4.366;2022-12-18T03:11:58;0.40;;;0.40;;
14530;SDS011;7352;50.866;4.366;2022-12-18T03:14:48;0.40;;;0.40;;
14530;SDS011;7352;50.866;4.366;2022-12-18T03:17:21;0.40;;;0.40;;
14530;SDS011;7352;50.866;4.366;2022-12-18T03:19:51;0.40;;;0.40;;
14530;SDS011;7352;50.866;4.366;2022-12-18T03:22:22;0.40;;;0.40;;
14530;SDS011;7352;50.866;4.366;2022-12-18T03:24:52;0.40;;;0.40;;
14530;SDS011;7352;50.866;4.366;2022-12-18T03:27:24;0.40;;;0.40;;
14530;SDS011;7352;50.866;4.366;2022-12-18T03:29:56;0.40;;;0.40;;
14530;SDS011;7352;50.866;4.366;2022-12-18T03:32:33;0.40;;;0.40;;
14530;SDS011;7352;50.866;4.366;2022-12-18T03:35:06;0.40;;;0.40;;
14530;SDS011;7352;50.866;4.366;2022-12-18T03:37:37;0.40;;;0.40;;
14530;SDS011;7352;50.866;4.366;2022-12-18T03:40:05;0.40;;;0.40;;
14530;SDS011;7352;50.866;4.366;2022-12-18T03:42:36;0.40;;;0.40;;
14530;SDS011;7352;50.866;4.366;2022-12-18T03:45:11;0.40;;;0.40;;
14530;SDS011;7352;50.866;4.366;2022-12-18T03:47:46;0.40;;;0.40;;
14530;SDS011;7352;50.866;4.366;2022-12-18T03:50:24;0.40;;;0.40;;
14530;SDS011;7352;50.866;4.366;2022-12-18T03:53:00;0.50;;;0.50;;
14530;SDS011;7352;50.866;4.366;2022-12-18T03:55:37;0.40;;;0.40;;
14530;SDS011;7352;50.866;4.366;2022-12-18T03:58:07;0.40;;;0.40;;
14530;SDS011;7352;50.866;4.366;2022-12-18T04:00:35;0.30;;;0.30;;
14530;SDS011;7352;50.866;4.366;2022-12-18T04:03:03;0.50;;;0.50;;
14530;SDS011;7352;50.866;4.366;2022-12-18T04:05:32;0.40;;;0.40;;
14530;SDS011;7352;50.866;4.366;2022-12-18T04:08:02;0.40;;;0.40;;
14530;SDS011;7352;50.866;4.366;2022-12-18T04:10:32;0.40;;;0.40;;
14530;SDS011;7352;50.866;4.366;2022-12-18T04:12:59;0.40;;;0.40;;
14530;SDS011;7352;50.866;4.366;2022-12-18T04:15:28;0.40;;;0.40;;
14530;SDS011;7352;50.866;4.366;2022-12-18T04:17:55;0.40;;;0.40;;
14530;SDS011;7352;50.866;4.366;2022-12-18T04:20:22;0.40;;;0.40;;
14530;SDS011;7352;50.866;4.366;2022-12-18T04:22:49;0.40;;;0.40;;
14530;SDS011;7352;50.866;4.366;2022-12-18T04:25:16;0.40;;;0.40;;
14530;SDS011;7352;50.866;4.366;2022-12-18T04:27:43;0.40;;;0.40;;
14530;SDS011;7352;50.866;4.366;2022-12-18T04:30:10;0.40;;;0.40;;
14530;SDS011;7352;50.866;4.366;2022-12-18T04:32:39;0.40;;;0.40;;
14530;SDS011;7352;50.866;4.366;2022-12-18T04:35:07;0.40;;;0.40;;
14530;SDS011;7352;50.866;4.366;2022-12-18T04:37:36;0.40;;;0.40;;
14530;SDS011;7352;50.866;4.366;2022-12-18T04:40:03;0.40;;;0.40;;
14530;SDS011;7352;50.866;4.366;2022-12-18T04:42:31;0.40;;;0.40;;
14530;SDS011;7352;50.866;4.366;2022-12-18T04:44:58;0.40;;;0.40;;
14530;SDS011;7352;50.866;4.366;2022-12-18T04:47:25;0.40;;;0.40;;
14530;SDS011;7352;50.866;4.366;2022-12-18T04:49:53;0.40;;;0.40;;
14530;SDS011;7352;50.866;4.366;2022-12-18T04:52:23;0.40;;;0.40;;
14530;SDS011;7352;50.866;4.366;2022-12-18T04:54:49;0.40;;;0.40;;
14530;SDS011;7352;50.866;4.366;2022-12-18T04:57:16;0.40;;;0.40;;
14530;SDS011;7352;50.866;4.366;2022-12-18T04:59:44;0.40;;;0.40;;
14530;SDS011;7352;50.866;4.366;2022-12-18T05:02:11;0.40;;;0.40;;
14530;SDS011;7352;50.866;4.366;2022-12-18T05:04:38;0.40;;;0.40;;
14530;SDS011;7352;50.866;4.366;2022-12-18T05:07:06;0.40;;;0.40;;
14530;SDS011;7352;50.866;4.366;2022-12-18T05:09:33;0.43;;;0.43;;
14530;SDS011;7352;50.866;4.366;2022-12-18T05:12:00;0.40;;;0.40;;
14530;SDS011;7352;50.866;4.366;2022-12-18T05:14:27;0.40;;;0.40;;
14530;SDS011;7352;50.866;4.366;2022-12-18T05:16:54;0.40;;;0.40;;
14530;SDS011;7352;50.866;4.366;2022-12-18T05:19:21;0.40;;;0.40;;
14530;SDS011;7352;50.866;4.366;2022-12-18T05:21:48;0.40;;;0.40;;
14530;SDS011;7352;50.866;4.366;2022-12-18T05:24:16;0.30;;;0.30;;
14530;SDS011;7352;50.866;4.366;2022-12-18T05:26:44;0.40;;;0.40;;
14530;SDS011;7352;50.866;4.366;2022-12-18T05:29:11;0.40;;;0.40;;
14530;SDS011;7352;50.866;4.366;2022-12-18T05:31:38;0.45;;;0.45;;
14530;SDS011;7352;50.866;4.366;2022-12-18T05:34:05;0.40;;;0.40;;
14530;SDS011;7352;50.866;4.366;2022-12-18T05:36:33;0.40;;;0.40;;
14530;SDS011;7352;50.866;4.366;2022-12-18T05:39:00;0.40;;;0.40;;
14530;SDS011;7352;50.866;4.366;2022-12-18T05:41:28;0.40;;;0.40;;
14530;SDS011;7352;50.866;4.366;2022-12-18T05:43:55;0.40;;;0.40;;
14530;SDS011;7352;50.866;4.366;2022-12-18T05:46:22;0.40;;;0.40;;
14530;SDS011;7352;50.866;4.366;2022-12-18T05:48:49;0.40;;;0.40;;
14530;SDS011;7352;50.866;4.366;2022-12-18T05:51:17;0.40;;;0.40;;
14530;SDS011;7352;50.866;4.366;2022-12-18T05:53:46;0.40;;;0.40;;
14530;SDS011;7352;50.866;4.366;2022-12-18T05:56:14;0.40;;;0.40;;
14530;SDS011;7352;50.866;4.366;2022-12-18T05:58:44;0.40;;;0.40;;
14530;SDS011;7352;50.866;4.366;2022-12-18T06:01:13;0.40;;;0.40;;
14530;SDS011;7352;50.866;4.366;2022-12-18T06:03:40;0.40;;;0.40;;
14530;SDS011;7352;50.866;4.366;2022-12-18T06:06:14;0.40;;;0.40;;
14530;SDS011;7352;50.866;4.366;2022-12-18T06:08:42;0.45;;;0.45;;
14530;SDS011;7352;50.866;4.366;2022-12-18T06:11:09;0.40;;;0.40;;
14530;SDS011;7352;50.866;4.366;2022-12-18T06:13:37;0.50;;;0.50;;
14530;SDS011;7352;50.866;4.366;2022-12-18T06:16:06;0.40;;;0.40;;
14530;SDS011;7352;50.866;4.366;2022-12-18T06:18:36;0.40;;;0.40;;
14530;SDS011;7352;50.866;4.366;2022-12-18T06:21:03;0.30;;;0.30;;
14530;SDS011;7352;50.866;4.366;2022-12-18T06:23:30;0.40;;;0.40;;
14530;SDS011;7352;50.866;4.366;2022-12-18T06:25:57;0.40;;;0.40;;
14530;SDS011;7352;50.866;4.366;2022-12-18T06:28:24;0.40;;;0.40;;
14530;SDS011;7352;50.866;4.366;2022-12-18T06:30:51;0.40;;;0.40;;
14530;SDS011;7352;50.866;4.366;2022-12-18T06:33:19;0.40;;;0.40;;
14530;SDS011;7352;50.866;4.366;2022-12-18T06:35:50;0.40;;;0.40;;
14530;SDS011;7352;50.866;4.366;2022-12-18T06:38:17;0.50;;;0.50;;
14530;SDS011;7352;50.866;4.366;2022-12-18T06:40:45;0.40;;;0.40;;
14530;SDS011;7352;50.866;4.366;2022-12-18T06:43:17;0.40;;;0.40;;
14530;SDS011;7352;50.866;4.366;2022-12-18T06:45:44;0.40;;;0.40;;
14530;SDS011;7352;50.866;4.366;2022-12-18T06:48:20;0.50;;;0.50;;
14530;SDS011;7352;50.866;4.366;2022-12-18T06:50:47;0.40;;;0.40;;
14530;SDS011;7352;50.866;4.366;2022-12-18T06:53:14;0.40;;;0.40;;
14530;SDS011;7352;50.866;4.366;2022-12-18T06:55:42;0.40;;;0.40;;
14530;SDS011;7352;50.866;4.366;2022-12-18T06:58:11;0.40;;;0.40;;
14530;SDS011;7352;50.866;4.366;2022-12-18T07:00:38;0.40;;;0.40;;
14530;SDS011;7352;50.866;4.366;2022-12-18T07:03:05;0.40;;;0.40;;
14530;SDS011;7352;50.866;4.366;2022-12-18T07:05:34;0.40;;;0.40;;
14530;SDS011;7352;50.866;4.366;2022-12-18T07:08:05;0.50;;;0.50;;
14530;SDS011;7352;50.866;4.366;2022-12-18T07:10:32;0.40;;;0.40;;
14530;SDS011;7352;50.866;4.366;2022-12-18T07:13:00;0.50;;;0.50;;
14530;SDS011;7352;50.866;4.366;2022-12-18T07:15:27;0.40;;;0.40;;
14530;SDS011;7352;50.866;4.366;2022-12-18T07:17:55;0.40;;;0.40;;
14530;SDS011;7352;50.866;4.366;2022-12-18T07:20:22;0.40;;;0.40;;
14530;SDS011;7352;50.866;4.366;2022-12-18T07:22:52;0.40;;;0.40;;
14530;SDS011;7352;50.866;4.366;2022-12-18T07:25:19;0.40;;;0.40;;
14530;SDS011;7352;50.866;4.366;2022-12-18T07:27:46;0.40;;;0.40;;
14530;SDS011;7352;50.866;4.366;2022-12-18T07:30:13;0.40;;;0.40;;
14530;SDS011;7352;50.866;4.366;2022-12-18T07:32:40;0.40;;;0.40;;
14530;SDS011;7352;50.866;4.366;2022-12-18T07:35:07;0.40;;;0.40;;
14530;SDS011;7352;50.866;4.366;2022-12-18T07:37:34;0.40;;;0.40;;
14530;SDS011;7352;50.866;4.366;2022-12-18T07:40:02;0.50;;;0.50;;
14530;SDS011;7352;50.866;4.366;2022-12-18T07:42:30;0.50;;;0.50;;
14530;SDS011;7352;50.866;4.366;2022-12-18T07:44:57;0.40;;;0.40;;
14530;SDS011;7352;50.866;4.366;2022-12-18T07:47:25;0.47;;;0.47;;
14530;SDS011;7352;50.866;4.366;2022-12-18T07:49:52;0.40;;;0.40;;
14530;SDS011;7352;50.866;4.366;2022-12-18T07:52:19;0.50;;;0.50;;
14530;SDS011;7352;50.866;4.366;2022-12-18T07:54:46;0.40;;;0.40;;
14530;SDS011;7352;50.866;4.366;2022-12-18T07:57:15;0.40;;;0.40;;
14530;SDS011;7352;50.866;4.366;2022-12-18T07:59:43;0.50;;;0.50;;
14530;SDS011;7352;50.866;4.366;2022-12-18T08:02:10;0.40;;;0.40;;
14530;SDS011;7352;50.866;4.366;2022-12-18T08:04:37;0.40;;;0.40;;
14530;SDS011;7352;50.866;4.366;2022-12-18T08:07:04;0.40;;;0.40;;
14530;SDS011;7352;50.866;4.366;2022-12-18T08:09:33;0.50;;;0.50;;
14530;SDS011;7352;50.866;4.366;2022-12-18T08:12:00;0.50;;;0.50;;
14530;SDS011;7352;50.866;4.366;2022-12-18T08:14:29;0.47;;;0.47;;
14530;SDS011;7352;50.866;4.366;2022-12-18T08:16:57;0.40;;;0.40;;
14530;SDS011;7352;50.866;4.366;2022-12-18T08:19:24;0.40;;;0.40;;
14530;SDS011;7352;50.866;4.366;2022-12-18T08:21:51;0.47;;;0.47;;
14530;SDS011;7352;50.866;4.366;2022-12-18T08:24:18;0.40;;;0.40;;
14530;SDS011;7352;50.866;4.366;2022-12-18T08:26:44;0.40;;;0.40;;
14530;SDS011;7352;50.866;4.366;2022-12-18T08:29:12;0.40;;;0.40;;
14530;SDS011;7352;50.866;4.366;2022-12-18T08:31:40;0.40;;;0.40;;
14530;SDS011;7352;50.866;4.366;2022-12-18T08:34:07;0.40;;;0.40;;
14530;SDS011;7352;50.866;4.366;2022-12-18T08:36:35;0.40;;;0.40;;
14530;SDS011;7352;50.866;4.366;2022-12-18T08:39:02;0.40;;;0.40;;
14530;SDS011;7352;50.866;4.366;2022-12-18T08:41:29;0.40;;;0.40;;
14530;SDS011;7352;50.866;4.366;2022-12-18T08:43:56;0.40;;;0.40;;
14530;SDS011;7352;50.866;4.366;2022-12-18T08:46:43;0.40;;;0.40;;
14530;SDS011;7352;50.866;4.366;2022-12-18T08:49:10;0.40;;;0.40;;
14530;SDS011;7352;50.866;4.366;2022-12-18T08:51:38;0.30;;;0.30;;
14530;SDS011;7352;50.866;4.366;2022-12-18T08:54:05;0.40;;;0.40;;
14530;SDS011;7352;50.866;4.366;2022-12-18T08:56:33;0.40;;;0.40;;
14530;SDS011;7352;50.866;4.366;2022-12-18T08:59:00;0.30;;;0.30;;
14530;SDS011;7352;50.866;4.366;2022-12-18T09:01:27;0.40;;;0.40;;
14530;SDS011;7352;50.866;4.366;2022-12-18T09:03:55;0.30;;;0.30;;
14530;SDS011;7352;50.866;4.366;2022-12-18T09:06:22;0.40;;;0.40;;
14530;SDS011;7352;50.866;4.366;2022-12-18T09:08:49;0.40;;;0.40;;
14530;SDS011;7352;50.866;4.366;2022-12-18T09:11:19;0.40;;;0.40;;
14530;SDS011;7352;50.866;4.366;2022-12-18T09:13:48;0.40;;;0.40;;
14530;SDS011;7352;50.866;4.366;2022-12-18T09:16:14;0.30;;;0.30;;
14530;SDS011;7352;50.866;4.366;2022-12-18T09:18:42;0.30;;;0.30;;
14530;SDS011;7352;50.866;4.366;2022-12-18T09:21:12;0.40;;;0.40;;
14530;SDS011;7352;50.866;4.366;2022-12-18T09:23:42;0.40;;;0.40;;
14530;SDS011;7352;50.866;4.366;2022-12-18T09:26:09;0.30;;;0.30;;
14530;SDS011;7352;50.866;4.366;2022-12-18T09:28:36;0.30;;;0.30;;
14530;SDS011;7352;50.866;4.366;2022-12-18T09:31:04;0.30;;;0.30;;
14530;SDS011;7352;50.866;4.366;2022-12-18T09:33:32;0.30;;;0.30;;
14530;SDS011;7352;50.866;4.366;2022-12-18T09:36:01;0.30;;;0.30;;
14530;SDS011;7352;50.866;4.366;2022-12-18T09:38:30;0.30;;;0.30;;
14530;SDS011;7352;50.866;4.366;2022-12-18T09:40:59;0.30;;;0.30;;
14530;SDS011;7352;50.866;4.366;2022-12-18T09:43:33;0.30;;;0.30;;
14530;SDS011;7352;50.866;4.366;2022-12-18T09:46:07;0.30;;;0.30;;
14530;SDS011;7352;50.866;4.366;2022-12-18T09:48:38;0.30;;;0.30;;
14530;SDS011;7352;50.866;4.366;2022-12-18T09:51:10;0.30;;;0.30;;
14530;SDS011;7352;50.866;4.366;2022-12-18T09:53:46;0.30;;;0.30;;
14530;SDS011;7352;50.866;4.366;2022-12-18T09:56:18;0.30;;;0.30;;
14530;SDS011;7352;50.866;4.366;2022-12-18T09:58:49;0.30;;;0.30;;
14530;SDS011;7352;50.866;4.366;2022-12-18T10:01:21;0.30;;;0.30;;
14530;SDS011;7352;50.866;4.366;2022-12-18T10:03:49;0.30;;;0.30;;
14530;SDS011;7352;50.866;4.366;2022-12-18T10:06:18;0.30;;;0.30;;
14530;SDS011;7352;50.866;4.366;2022-12-18T10:08:54;0.30;;;0.30;;
14530;SDS011;7352;50.866;4.366;2022-12-18T10:11:29;0.30;;;0.30;;
14530;SDS011;7352;50.866;4.366;2022-12-18T10:14:08;0.30;;;0.30;;
14530;SDS011;7352;50.866;4.366;2022-12-18T10:16:43;0.30;;;0.30;;
14530;SDS011;7352;50.866;4.366;2022-12-18T10:19:24;0.30;;;0.30;;
14530;SDS011;7352;50.866;4.366;2022-12-18T10:22:01;0.30;;;0.30;;
14530;SDS011;7352;50.866;4.366;2022-12-18T10:24:38;0.20;;;0.20;;
14530;SDS011;7352;50.866;4.366;2022-12-18T10:27:12;0.30;;;0.30;;
14530;SDS011;7352;50.866;4.366;2022-12-18T10:29:48;0.20;;;0.20;;
14530;SDS011;7352;50.866;4.366;2022-12-18T10:32:18;0.30;;;0.30;;
14530;SDS011;7352;50.866;4.366;2022-12-18T10:34:46;0.30;;;0.30;;
14530;SDS011;7352;50.866;4.366;2022-12-18T10:37:16;0.30;;;0.30;;
14530;SDS011;7352;50.866;4.366;2022-12-18T10:39:47;0.30;;;0.30;;
14530;SDS011;7352;50.866;4.366;2022-12-18T10:42:33;0.30;;;0.30;;
14530;SDS011;7352;50.866;4.366;2022-12-18T10:45:01;0.27;;;0.27;;
14530;SDS011;7352;50.866;4.366;2022-12-18T10:47:29;0.20;;;0.20;;
14530;SDS011;7352;50.866;4.366;2022-12-18T10:49:56;0.30;;;0.30;;
14530;SDS011;7352;50.866;4.366;2022-12-18T10:52:25;0.20;;;0.20;;
14530;SDS011;7352;50.866;4.366;2022-12-18T10:54:57;0.20;;;0.20;;
14530;SDS011;7352;50.866;4.366;2022-12-18T10:57:30;0.30;;;0.30;;
14530;SDS011;7352;50.866;4.366;2022-12-18T11:00:11;0.20;;;0.20;;
14530;SDS011;7352;50.866;4.366;2022-12-18T11:02:52;0.30;;;0.30;;
14530;SDS011;7352;50.866;4.366;2022-12-18T11:05:27;0.20;;;0.20;;
14530;SDS011;7352;50.866;4.366;2022-12-18T11:07:57;0.20;;;0.20;;
14530;SDS011;7352;50.866;4.366;2022-12-18T11:10:28;0.30;;;0.30;;
14530;SDS011;7352;50.866;4.366;2022-12-18T11:13:08;0.30;;;0.30;;
14530;SDS011;7352;50.866;4.366;2022-12-18T11:15:41;0.30;;;0.30;;
14530;SDS011;7352;50.866;4.366;2022-12-18T11:18:15;0.30;;;0.30;;
14530;SDS011;7352;50.866;4.366;2022-12-18T11:20:50;0.20;;;0.20;;
14530;SDS011;7352;50.866;4.366;2022-12-18T11:23:18;0.20;;;0.20;;
14530;SDS011;7352;50.866;4.366;2022-12-18T11:25:53;0.30;;;0.30;;
14530;SDS011;7352;50.866;4.366;2022-12-18T11:28:25;0.30;;;0.30;;
14530;SDS011;7352;50.866;4.366;2022-12-18T11:31:08;0.20;;;0.20;;
14530;SDS011;7352;50.866;4.366;2022-12-18T11:33:59;0.30;;;0.30;;
14530;SDS011;7352;50.866;4.366;2022-12-18T11:36:30;0.30;;;0.30;;
14530;SDS011;7352;50.866;4.366;2022-12-18T11:39:02;0.20;;;0.20;;
14530;SDS011;7352;50.866;4.366;2022-12-18T11:41:38;0.20;;;0.20;;
14530;SDS011;7352;50.866;4.366;2022-12-18T11:44:28;0.20;;;0.20;;
14530;SDS011;7352;50.866;4.366;2022-12-18T11:47:03;0.20;;;0.20;;
14530;SDS011;7352;50.866;4.366;2022-12-18T11:49:39;0.20;;;0.20;;
14530;SDS011;7352;50.866;4.366;2022-12-18T11:52:09;0.30;;;0.30;;
14530;SDS011;7352;50.866;4.366;2022-12-18T11:54:43;0.20;;;0.20;;
14530;SDS011;7352;50.866;4.366;2022-12-18T11:57:13;0.20;;;0.20;;
14530;SDS011;7352;50.866;4.366;2022-12-18T11:59:52;0.20;;;0.20;;
14530;SDS011;7352;50.866;4.366;2022-12-18T12:02:36;0.20;;;0.20;;
14530;SDS011;7352;50.866;4.366;2022-12-18T12:05:29;0.30;;;0.30;;
14530;SDS011;7352;50.866;4.366;2022-12-18T12:08:10;0.20;;;0.20;;
14530;SDS011;7352;50.866;4.366;2022-12-18T12:10:48;0.20;;;0.20;;
14530;SDS011;7352;50.866;4.366;2022-12-18T12:13:30;0.20;;;0.20;;
14530;SDS011;7352;50.866;4.366;2022-12-18T12:16:10;0.20;;;0.20;;
14530;SDS011;7352;50.866;4.366;2022-12-18T12:21:42;0.20;;;0.20;;
14530;SDS011;7352;50.866;4.366;2022-12-18T12:24:20;0.23;;;0.23;;
14530;SDS011;7352;50.866;4.366;2022-12-18T12:27:01;0.30;;;0.30;;
14530;SDS011;7352;50.866;4.366;2022-12-18T12:29:46;0.20;;;0.20;;
14530;SDS011;7352;50.866;4.366;2022-12-18T12:32:27;0.20;;;0.20;;
14530;SDS011;7352;50.866;4.366;2022-12-18T12:35:08;0.20;;;0.20;;
14530;SDS011;7352;50.866;4.366;2022-12-18T12:37:46;0.20;;;0.20;;
14530;SDS011;7352;50.866;4.366;2022-12-18T12:40:23;0.27;;;0.27;;
14530;SDS011;7352;50.866;4.366;2022-12-18T12:42:54;0.20;;;0.20;;
14530;SDS011;7352;50.866;4.366;2022-12-18T12:45:42;0.20;;;0.20;;
14530;SDS011;7352;50.866;4.366;2022-12-18T12:48:16;0.20;;;0.20;;
14530;SDS011;7352;50.866;4.366;2022-12-18T12:50:57;0.20;;;0.20;;
14530;SDS011;7352;50.866;4.366;2022-12-18T12:53:27;0.20;;;0.20;;
14530;SDS011;7352;50.866;4.366;2022-12-18T12:56:00;0.20;;;0.20;;
14530;SDS011;7352;50.866;4.366;2022-12-18T12:58:30;0.20;;;0.20;;
14530;SDS011;7352;50.866;4.366;2022-12-18T13:01:12;0.20;;;0.20;;
14530;SDS011;7352;50.866;4.366;2022-12-18T13:03:52;0.20;;;0.20;;
14530;SDS011;7352;50.866;4.366;2022-12-18T13:06:35;0.20;;;0.20;;
14530;SDS011;7352;50.866;4.366;2022-12-18T13:09:09;0.30;;;0.30;;
14530;SDS011;7352;50.866;4.366;2022-12-18T13:11:38;0.20;;;0.20;;
14530;SDS011;7352;50.866;4.366;2022-12-18T13:14:26;0.30;;;0.30;;
14530;SDS011;7352;50.866;4.366;2022-12-18T13:20:04;0.20;;;0.20;;
14530;SDS011;7352;50.866;4.366;2022-12-18T13:22:34;0.23;;;0.23;;
14530;SDS011;7352;50.866;4.366;2022-12-18T13:25:03;0.20;;;0.20;;
14530;SDS011;7352;50.866;4.366;2022-12-18T13:27:57;0.30;;;0.30;;
14530;SDS011;7352;50.866;4.366;2022-12-18T13:30:47;0.30;;;0.30;;
14530;SDS011;7352;50.866;4.366;2022-12-18T13:36:37;0.30;;;0.30;;
14530;SDS011;7352;50.866;4.366;2022-12-18T13:48:22;0.30;;;0.30;;
14530;SDS011;7352;50.866;4.366;2022-12-18T13:50:57;0.30;;;0.30;;
14530;SDS011;7352;50.866;4.366;2022-12-18T13:53:29;0.20;;;0.20;;
14530;SDS011;7352;50.866;4.366;2022-12-18T13:55:59;0.23;;;0.23;;
14530;SDS011;7352;50.866;4.366;2022-12-18T13:58:26;0.30;;;0.30;;
14530;SDS011;7352;50.866;4.366;2022-12-18T14:00:53;0.30;;;0.30;;
14530;SDS011;7352;50.866;4.366;2022-12-18T14:03:22;0.20;;;0.20;;
14530;SDS011;7352;50.866;4.366;2022-12-18T14:05:54;0.23;;;0.23;;
14530;SDS011;7352;50.866;4.366;2022-12-18T14:08:32;0.20;;;0.20;;
14530;SDS011;7352;50.866;4.366;2022-12-18T14:11:05;0.30;;;0.30;;
14530;SDS011;7352;50.866;4.366;2022-12-18T14:13:35;0.20;;;0.20;;
14530;SDS011;7352;50.866;4.366;2022-12-18T14:16:05;0.30;;;0.30;;
14530;SDS011;7352;50.866;4.366;2022-12-18T14:18:38;0.20;;;0.20;;
14530;SDS011;7352;50.866;4.366;2022-12-18T14:26:41;0.40;;;0.40;;
14530;SDS011;7352;50.866;4.366;2022-12-18T14:29:20;0.20;;;0.20;;
14530;SDS011;7352;50.866;4.366;2022-12-18T14:32:05;0.30;;;0.30;;
14530;SDS011;7352;50.866;4.366;2022-12-18T14:34:35;0.20;;;0.20;;
14530;SDS011;7352;50.866;4.366;2022-12-18T14:37:04;0.30;;;0.30;;
14530;SDS011;7352;50.866;4.366;2022-12-18T14:39:32;0.20;;;0.20;;
14530;SDS011;7352;50.866;4.366;2022-12-18T14:42:05;0.30;;;0.30;;
14530;SDS011;7352;50.866;4.366;2022-12-18T14:44:36;0.20;;;0.20;;
14530;SDS011;7352;50.866;4.366;2022-12-18T14:47:04;0.30;;;0.30;;
14530;SDS011;7352;50.866;4.366;2022-12-18T14:49:40;0.20;;;0.20;;
14530;SDS011;7352;50.866;4.366;2022-12-18T14:52:17;0.20;;;0.20;;
14530;SDS011;7352;50.866;4.366;2022-12-18T14:54:50;0.27;;;0.27;;
14530;SDS011;7352;50.866;4.366;2022-12-18T14:57:20;0.20;;;0.20;;
14530;SDS011;7352;50.866;4.366;2022-12-18T14:59:49;0.30;;;0.30;;
14530;SDS011;7352;50.866;4.366;2022-12-18T15:02:18;0.20;;;0.20;;
14530;SDS011;7352;50.866;4.366;2022-12-18T15:04:58;0.20;;;0.20;;
14530;SDS011;7352;50.866;4.366;2022-12-18T15:07:34;0.20;;;0.20;;
14530;SDS011;7352;50.866;4.366;2022-12-18T15:10:10;0.20;;;0.20;;
14530;SDS011;7352;50.866;4.366;2022-12-18T15:12:40;0.27;;;0.27;;
14530;SDS011;7352;50.866;4.366;2022-12-18T15:18:11;0.30;;;0.30;;
14530;SDS011;7352;50.866;4.366;2022-12-18T15:20:42;0.30;;;0.30;;
14530;SDS011;7352;50.866;4.366;2022-12-18T15:23:18;0.23;;;0.23;;
14530;SDS011;7352;50.866;4.366;2022-12-18T15:25:48;0.20;;;0.20;;
14530;SDS011;7352;50.866;4.366;2022-12-18T15:28:23;0.30;;;0.30;;
14530;SDS011;7352;50.866;4.366;2022-12-18T15:30:59;0.30;;;0.30;;
14530;SDS011;7352;50.866;4.366;2022-12-18T15:33:30;0.30;;;0.30;;
14530;SDS011;7352;50.866;4.366;2022-12-18T15:36:00;0.20;;;0.20;;
14530;SDS011;7352;50.866;4.366;2022-12-18T15:38:31;0.30;;;0.30;;
14530;SDS011;7352;50.866;4.366;2022-12-18T15:40:58;0.20;;;0.20;;
14530;SDS011;7352;50.866;4.366;2022-12-18T15:43:29;0.20;;;0.20;;
14530;SDS011;7352;50.866;4.366;2022-12-18T15:46:00;0.20;;;0.20;;
14530;SDS011;7352;50.866;4.366;2022-12-18T15:48:28;0.20;;;0.20;;
14530;SDS011;7352;50.866;4.366;2022-12-18T15:50:56;0.20;;;0.20;;
14530;SDS011;7352;50.866;4.366;2022-12-18T15:53:25;0.20;;;0.20;;
14530;SDS011;7352;50.866;4.366;2022-12-18T15:55:57;0.20;;;0.20;;
14530;SDS011;7352;50.866;4.366;2022-12-18T15:58:41;0.20;;;0.20;;